Time;durP1;ratioP1;P1;durP2;ratioP2;P2;SDS_P1;SDS_P2;PMS_P1;PMS_P2;Temp;Humidity;BMP_temperature;BMP_pressure;BME280_temperature;BME280_humidity;BME280_pressure;Samples;Min_cycle;Max_cycle;Signal;HPM_P1;HPM_P2
2023/05/20 00:01:17;;;;;;;18.85;11.35;;;;;;;13.11;100.00;98857.75;2563525;28;20055;-90
2023/05/20 00:02:33;;;;;;;16.90;10.27;;;;;;;13.03;100.00;98858.91;2546239;29;20154;-91
2023/05/20 00:03:50;;;;;;;19.17;11.10;;;;;;;13.10;100.00;98861.28;2551215;29;20055;-90
2023/05/20 00:06:42;;;;;;;19.30;10.45;;;;;;;13.03;100.00;98864.16;2546530;29;20059;-90
2023/05/20 00:07:58;;;;;;;19.33;11.52;;;;;;;13.04;100.00;98850.97;2546406;29;20059;-90
2023/05/20 00:09:34;;;;;;;19.85;10.68;;;;;;;13.06;100.00;98849.16;2557946;28;20467;-90
2023/05/20 00:10:50;;;;;;;18.23;10.38;;;;;;;13.13;100.00;98868.22;2556073;28;20079;-91
2023/05/20 00:12:05;;;;;;;18.75;10.77;;;;;;;12.97;100.00;98865.19;2557188;28;20065;-90
2023/05/20 00:13:23;;;;;;;20.70;11.35;;;;;;;13.05;100.00;98865.84;2567398;28;20058;-90
2023/05/20 00:16:49;;;;;;;19.33;11.15;;;;;;;12.97;100.00;98867.84;2532935;29;20064;-91
2023/05/20 00:18:05;;;;;;;21.23;11.23;;;;;;;12.91;100.00;98865.41;2532476;29;20950;-90
2023/05/20 00:20:56;;;;;;;19.98;10.98;;;;;;;12.94;100.00;98858.28;2517484;29;20056;-90
2023/05/20 00:22:52;;;;;;;18.80;10.68;;;;;;;12.89;100.00;98864.59;2546981;28;20589;-91
2023/05/20 00:24:28;;;;;;;22.00;11.48;;;;;;;12.93;100.00;98863.59;2526989;29;20500;-92
2023/05/20 00:25:45;;;;;;;21.30;11.27;;;;;;;12.96;100.00;98859.09;2526698;29;20060;-91
2023/05/20 00:27:02;;;;;;;18.65;10.48;;;;;;;13.06;100.00;98857.03;2516925;29;20630;-91
2023/05/20 00:28:42;;;;;;;17.42;10.82;;;;;;;12.91;100.00;98858.38;2539920;29;20071;-91
2023/05/20 00:30:17;;;;;;;19.27;11.45;;;;;;;12.89;100.00;98864.59;2518427;29;20072;-91
2023/05/20 00:31:54;;;;;;;20.17;11.68;;;;;;;12.80;100.00;98860.50;2526152;29;20060;-91
2023/05/20 00:33:09;;;;;;;20.60;11.73;;;;;;;12.86;100.00;98855.03;2543237;29;20123;-92
2023/05/20 00:34:25;;;;;;;18.08;11.10;;;;;;;12.82;100.00;98856.88;2539916;29;20124;-91
2023/05/20 00:38:53;;;;;;;18.35;11.05;;;;;;;12.90;100.00;98858.44;2535511;29;20074;-92
2023/05/20 00:40:10;;;;;;;19.67;11.50;;;;;;;12.82;100.00;98858.66;2550711;28;20133;-91
2023/05/20 00:41:25;;;;;;;19.52;11.25;;;;;;;12.84;100.00;98854.22;2555344;28;20194;-91
2023/05/20 00:42:40;;;;;;;17.02;10.65;;;;;;;12.87;100.00;98858.53;2555669;28;20059;-92
2023/05/20 00:44:11;;;;;;;21.48;11.05;;;;;;;12.69;100.00;98863.41;2536480;29;20052;-91
2023/05/20 00:45:27;;;;;;;18.52;11.07;;;;;;;12.73;100.00;98859.81;2554121;28;20143;-91
2023/05/20 00:46:58;;;;;;;22.13;11.98;;;;;;;12.65;100.00;98854.78;2552460;28;20044;-92
2023/05/20 00:50:11;;;;;;;21.88;11.20;;;;;;;12.49;100.00;98859.63;2551592;28;20091;-91
2023/05/20 00:51:27;;;;;;;20.60;11.63;;;;;;;12.60;100.00;98861.09;2557408;28;20493;-89
2023/05/20 00:52:50;;;;;;;20.90;11.02;;;;;;;12.56;100.00;98861.16;2560413;28;20062;-89
2023/05/20 00:54:06;;;;;;;20.70;11.63;;;;;;;12.54;100.00;98849.00;2562010;28;20058;-89
2023/05/20 00:55:22;;;;;;;20.08;11.45;;;;;;;12.24;100.00;98844.56;2565946;28;20086;-91
2023/05/20 00:56:58;;;;;;;19.83;12.13;;;;;;;12.39;100.00;98850.28;2576983;28;20053;-89
2023/05/20 00:58:14;;;;;;;20.13;11.38;;;;;;;12.24;100.00;98848.97;2567500;28;20519;-89
2023/05/20 00:59:29;;;;;;;20.35;11.15;;;;;;;12.35;100.00;98853.91;2572965;28;20471;-89
2023/05/20 01:00:45;;;;;;;22.17;12.50;;;;;;;12.19;100.00;98862.22;2569150;28;20487;-89
2023/05/20 01:03:39;;;;;;;22.85;12.15;;;;;;;12.11;100.00;98864.19;2555788;28;20047;-89
2023/05/20 01:04:55;;;;;;;24.10;12.48;;;;;;;12.02;100.00;98862.69;2564238;28;20054;-89
2023/05/20 01:06:22;;;;;;;22.95;12.07;;;;;;;12.25;100.00;98866.44;2570002;28;20541;-88
2023/05/20 01:07:37;;;;;;;25.45;12.82;;;;;;;12.28;100.00;98874.22;2571571;28;20054;-91
2023/05/20 01:09:30;;;;;;;22.55;12.63;;;;;;;12.27;100.00;98868.09;2549504;29;20055;-92
2023/05/20 01:10:50;;;;;;;22.08;12.35;;;;;;;12.31;100.00;98865.41;2550152;29;20476;-91
2023/05/20 01:12:28;;;;;;;22.38;12.20;;;;;;;12.33;100.00;98864.44;2530274;29;20136;-91
2023/05/20 01:13:54;;;;;;;23.00;11.70;;;;;;;12.25;100.00;98871.69;2531510;29;20103;-91
2023/05/20 01:15:12;;;;;;;23.42;12.95;;;;;;;12.39;100.00;98869.53;2531160;29;20765;-92
2023/05/20 01:16:30;;;;;;;21.70;12.00;;;;;;;12.45;100.00;98870.25;2554368;29;20526;-91
2023/05/20 01:18:04;;;;;;;19.50;11.63;;;;;;;12.45;100.00;98859.75;2549871;29;20051;-91
2023/05/20 01:21:17;;;;;;;20.58;11.27;;;;;;;12.47;100.00;98860.56;2554644;28;20138;-92
2023/05/20 01:24:29;;;;;;;20.88;11.27;;;;;;;12.46;100.00;98859.72;2533396;29;20558;-91
2023/05/20 01:26:05;;;;;;;22.30;12.07;;;;;;;12.55;100.00;98855.97;2540172;29;20055;-93
2023/05/20 01:27:40;;;;;;;23.98;12.90;;;;;;;12.56;100.00;98853.28;2525382;29;20519;-92
2023/05/20 01:28:56;;;;;;;28.35;13.13;;;;;;;12.40;100.00;98852.88;2531524;29;20055;-92
2023/05/20 01:30:13;;;;;;;24.98;13.40;;;;;;;12.47;100.00;98856.19;2531965;29;20916;-91
2023/05/20 01:31:32;;;;;;;26.20;12.80;;;;;;;12.55;100.00;98856.81;2559101;28;20060;-91
2023/05/20 01:32:56;;;;;;;23.08;13.20;;;;;;;12.58;100.00;98853.25;2571094;28;20069;-92
2023/05/20 01:34:32;;;;;;;22.02;13.20;;;;;;;12.56;100.00;98852.44;2576520;28;20058;-91
2023/05/20 01:35:48;;;;;;;22.73;12.73;;;;;;;12.52;100.00;98854.28;2556048;28;20051;-92
2023/05/20 01:37:06;;;;;;;22.48;12.55;;;;;;;12.62;100.00;98846.97;2565416;28;20062;-91
2023/05/20 01:38:24;;;;;;;21.20;12.20;;;;;;;12.62;100.00;98851.38;2572239;28;20061;-91
2023/05/20 01:41:17;;;;;;;23.42;12.82;;;;;;;12.40;100.00;98838.88;2559867;28;20082;-92
2023/05/20 01:44:14;;;;;;;23.52;12.52;;;;;;;12.64;100.00;98839.06;2560646;28;20081;-91
2023/05/20 01:45:30;;;;;;;23.83;12.32;;;;;;;12.49;100.00;98845.63;2561255;28;20065;-91
2023/05/20 01:46:50;;;;;;;26.77;13.40;;;;;;;12.49;100.00;98846.50;2557343;28;20055;-92
2023/05/20 01:48:07;;;;;;;27.10;13.15;;;;;;;12.59;100.00;98846.22;2567480;28;20133;-92
2023/05/20 01:51:19;;;;;;;23.50;12.90;;;;;;;12.52;100.00;98838.50;2577958;28;20049;-91
2023/05/20 01:52:55;;;;;;;22.48;12.35;;;;;;;12.70;100.00;98838.88;2582090;28;20054;-90
2023/05/20 01:54:11;;;;;;;22.92;12.55;;;;;;;12.57;100.00;98841.00;2570761;28;20061;-91
2023/05/20 01:55:26;;;;;;;24.88;13.45;;;;;;;12.64;100.00;98837.31;2569903;28;20054;-92
2023/05/20 01:56:42;;;;;;;23.33;12.85;;;;;;;12.61;100.00;98839.16;2559103;28;20054;-91
2023/05/20 01:59:34;;;;;;;20.00;11.75;;;;;;;12.58;100.00;98840.09;2553575;28;20404;-92
2023/05/20 02:00:49;;;;;;;21.58;11.95;;;;;;;12.62;100.00;98833.00;2560658;28;20387;-91
2023/05/20 02:02:06;;;;;;;24.95;12.70;;;;;;;12.69;100.00;98839.78;2575439;28;20081;-92
2023/05/20 02:03:42;;;;;;;23.05;12.50;;;;;;;12.69;100.00;98834.53;2568720;28;20085;-91
2023/05/20 02:05:18;;;;;;;26.60;12.27;;;;;;;12.57;100.00;98836.63;2565555;28;20054;-92
2023/05/20 02:06:34;;;;;;;22.27;11.48;;;;;;;12.50;100.00;98835.09;2575565;28;20137;-92
2023/05/20 02:07:50;;;;;;;25.42;12.93;;;;;;;12.52;100.00;98829.78;2580867;28;20065;-92
2023/05/20 02:09:06;;;;;;;21.20;12.25;;;;;;;12.40;100.00;98836.25;2580993;28;20073;-90
2023/05/20 02:10:42;;;;;;;23.88;12.45;;;;;;;12.67;100.00;98831.97;2581128;28;20749;-92
2023/05/20 02:11:59;;;;;;;22.38;12.25;;;;;;;12.54;100.00;98841.13;2565658;28;20101;-92
2023/05/20 02:14:55;;;;;;;24.42;12.00;;;;;;;12.56;100.00;98840.13;2565855;28;20120;-92
2023/05/20 02:16:10;;;;;;;22.73;12.85;;;;;;;12.51;100.00;98836.78;2565018;28;20051;-92
2023/05/20 02:17:26;;;;;;;23.05;13.13;;;;;;;12.59;100.00;98833.09;2555905;28;20126;-92
2023/05/20 02:18:42;;;;;;;22.13;12.05;;;;;;;12.36;100.00;98840.75;2560493;28;20058;-91
2023/05/20 02:19:58;;;;;;;26.92;12.38;;;;;;;12.40;100.00;98836.25;2568002;28;20482;-93
2023/05/20 02:21:13;;;;;;;22.50;12.48;;;;;;;12.45;100.00;98838.75;2579275;28;20173;-91
2023/05/20 02:22:29;;;;;;;23.40;12.65;;;;;;;12.60;100.00;98829.56;2601253;28;20045;-92
2023/05/20 02:23:46;;;;;;;24.00;12.20;;;;;;;12.52;100.00;98828.00;2597762;28;20408;-91
2023/05/20 02:25:02;;;;;;;23.30;13.38;;;;;;;12.47;100.00;98824.69;2603236;28;20045;-92
2023/05/20 02:26:19;;;;;;;26.52;13.23;;;;;;;12.41;100.00;98830.09;2602377;28;20060;-91
2023/05/20 02:27:35;;;;;;;22.58;12.55;;;;;;;12.27;100.00;98826.09;2602070;28;20060;-92
2023/05/20 02:28:50;;;;;;;21.80;12.40;;;;;;;12.22;100.00;98825.38;2597762;28;21051;-91
2023/05/20 02:30:07;;;;;;;24.95;12.88;;;;;;;12.32;100.00;98825.13;2600136;28;20492;-93
2023/05/20 02:31:22;;;;;;;21.75;12.73;;;;;;;12.19;100.00;98821.97;2603875;28;20471;-92
2023/05/20 02:32:38;;;;;;;22.17;11.98;;;;;;;12.16;100.00;98817.69;2601720;28;20099;-91
2023/05/20 02:33:54;;;;;;;27.35;12.73;;;;;;;12.15;100.00;98826.44;2601509;28;20053;-91
2023/05/20 02:35:09;;;;;;;22.50;11.80;;;;;;;12.20;100.00;98821.06;2602833;28;20053;-90
2023/05/20 02:36:26;;;;;;;25.98;13.27;;;;;;;12.11;100.00;98823.06;2603174;28;20065;-92
2023/05/20 02:37:43;;;;;;;23.17;12.48;;;;;;;12.24;100.00;98823.56;2602824;28;20128;-91
2023/05/20 02:39:00;;;;;;;24.23;12.38;;;;;;;12.18;100.00;98822.88;2591538;28;20077;-91
2023/05/20 02:40:30;;;;;;;25.75;12.48;;;;;;;12.11;100.00;98820.44;2564938;28;20046;-91
2023/05/20 02:41:47;;;;;;;26.10;12.50;;;;;;;11.98;100.00;98829.53;2570474;28;20403;-92
2023/05/20 02:43:03;;;;;;;22.75;13.05;;;;;;;11.97;100.00;98809.44;2571435;28;20046;-91
2023/05/20 02:44:33;;;;;;;23.75;12.35;;;;;;;12.03;100.00;98808.44;2571486;28;21171;-92
2023/05/20 02:47:26;;;;;;;23.65;12.85;;;;;;;11.99;100.00;98797.13;2560072;28;20126;-91
2023/05/20 02:48:41;;;;;;;25.38;13.57;;;;;;;11.96;100.00;98803.31;2558756;28;20411;-91
2023/05/20 02:49:57;;;;;;;26.98;13.52;;;;;;;11.89;100.00;98808.78;2560932;28;20062;-91
2023/05/20 02:51:12;;;;;;;24.50;12.68;;;;;;;11.95;100.00;98800.75;2574026;28;20113;-91
2023/05/20 02:52:32;;;;;;;23.20;11.85;;;;;;;11.81;100.00;98801.13;2590303;28;20061;-91
2023/05/20 02:55:46;;;;;;;23.08;12.25;;;;;;;12.03;100.00;98808.44;2576647;28;20097;-92
2023/05/20 02:57:02;;;;;;;25.85;11.98;;;;;;;11.83;100.00;98797.56;2572182;28;20093;-91
2023/05/20 02:58:25;;;;;;;22.08;12.30;;;;;;;11.90;100.00;98811.38;2571428;28;20058;-93
2023/05/20 02:59:41;;;;;;;23.48;12.25;;;;;;;11.92;100.00;98811.31;2570818;28;20072;-92
2023/05/20 03:00:56;;;;;;;22.65;12.55;;;;;;;11.84;100.00;98799.28;2571029;28;20055;-91
2023/05/20 03:02:12;;;;;;;25.95;13.60;;;;;;;11.73;100.00;98809.19;2581937;28;20052;-91
2023/05/20 03:03:32;;;;;;;25.67;13.88;;;;;;;11.80;100.00;98810.75;2587568;28;20053;-91
2023/05/20 03:05:08;;;;;;;24.55;12.77;;;;;;;11.92;100.00;98812.19;2604141;28;20049;-91
2023/05/20 03:06:25;;;;;;;23.75;12.60;;;;;;;11.97;100.00;98812.91;2565509;28;20062;-92
2023/05/20 03:07:40;;;;;;;24.83;12.80;;;;;;;11.87;100.00;98809.69;2568611;28;20501;-91
2023/05/20 03:08:56;;;;;;;24.35;12.50;;;;;;;12.03;100.00;98811.91;2572093;28;20051;-92
2023/05/20 03:10:12;;;;;;;25.42;13.27;;;;;;;11.96;100.00;98819.06;2570383;28;20202;-92
2023/05/20 03:11:28;;;;;;;25.58;13.43;;;;;;;11.89;100.00;98811.41;2570549;28;20498;-91
2023/05/20 03:12:43;;;;;;;23.77;12.90;;;;;;;11.97;100.00;98810.28;2578138;28;20084;-91
2023/05/20 03:14:10;;;;;;;23.80;12.73;;;;;;;12.07;100.00;98815.31;2601615;28;20689;-91
2023/05/20 03:17:21;;;;;;;23.98;12.23;;;;;;;11.96;100.00;98819.06;2570040;28;20060;-92
2023/05/20 03:18:38;;;;;;;23.90;12.10;;;;;;;12.04;100.00;98818.88;2539664;29;20265;-91
2023/05/20 03:20:11;;;;;;;20.02;11.05;;;;;;;12.00;100.00;98825.94;2526290;29;20302;-91
2023/05/20 03:21:27;;;;;;;24.80;11.95;;;;;;;12.16;100.00;98822.94;2528082;29;20064;-92
2023/05/20 03:22:42;;;;;;;25.20;12.15;;;;;;;12.06;100.00;98824.09;2517851;29;20051;-91
2023/05/20 03:24:39;;;;;;;25.70;13.98;;;;;;;12.03;100.00;98825.03;2539910;28;20115;-92
2023/05/20 03:25:56;;;;;;;21.63;11.63;;;;;;;12.01;100.00;98834.69;2553618;28;20070;-93
2023/05/20 03:27:11;;;;;;;20.73;12.05;;;;;;;12.03;100.00;98832.91;2566777;28;20054;-91
2023/05/20 03:28:27;;;;;;;24.15;12.57;;;;;;;12.03;100.00;98827.66;2571964;28;20061;-92
2023/05/20 03:30:14;;;;;;;22.25;12.02;;;;;;;12.00;100.00;98825.94;2573682;28;20059;-91
2023/05/20 03:31:49;;;;;;;18.65;11.38;;;;;;;12.00;100.00;98825.94;2554191;28;20138;-91
2023/05/20 03:33:06;;;;;;;23.85;12.80;;;;;;;11.93;100.00;98820.91;2547707;29;20535;-91
2023/05/20 03:34:21;;;;;;;24.02;12.90;;;;;;;11.85;100.00;98829.84;2558387;28;20569;-93
2023/05/20 03:35:37;;;;;;;24.42;12.02;;;;;;;11.95;100.00;98825.22;2551754;28;20055;-93
2023/05/20 03:37:13;;;;;;;22.55;12.50;;;;;;;11.87;100.00;98824.56;2553867;28;20114;-92
2023/05/20 03:38:29;;;;;;;23.75;11.55;;;;;;;11.82;100.00;98819.44;2539818;29;20630;-92
2023/05/20 03:39:59;;;;;;;24.58;12.68;;;;;;;11.99;100.00;98826.00;2532432;29;20143;-91
2023/05/20 03:41:15;;;;;;;23.38;12.40;;;;;;;11.97;100.00;98823.41;2543939;29;20172;-92
2023/05/20 03:42:52;;;;;;;22.05;12.43;;;;;;;12.00;100.00;98818.06;2544588;29;20561;-91
2023/05/20 03:44:25;;;;;;;23.58;11.68;;;;;;;11.92;100.00;98822.69;2499871;29;20482;-92
2023/05/20 03:45:41;;;;;;;20.73;11.55;;;;;;;12.00;100.00;98825.94;2540582;29;20114;-91
2023/05/20 03:47:17;;;;;;;22.08;11.93;;;;;;;11.90;100.00;98816.63;2548127;29;20047;-91
2023/05/20 03:48:32;;;;;;;23.85;12.05;;;;;;;12.05;100.00;98822.38;2529037;29;20055;-91
2023/05/20 03:49:48;;;;;;;25.10;12.98;;;;;;;12.05;100.00;98827.63;2537924;29;20066;-91
2023/05/20 03:51:03;;;;;;;22.23;11.75;;;;;;;12.08;100.00;98827.53;2562044;28;20469;-92
2023/05/20 03:52:19;;;;;;;23.75;12.40;;;;;;;12.09;100.00;98824.00;2577571;28;20075;-91
2023/05/20 03:53:35;;;;;;;24.20;12.90;;;;;;;12.05;100.00;98825.84;2576384;28;20164;-92
2023/05/20 03:55:03;;;;;;;24.52;12.25;;;;;;;12.22;100.00;98830.63;2582140;28;20085;-91
2023/05/20 03:56:18;;;;;;;21.92;11.90;;;;;;;12.21;100.00;98823.66;2603720;28;20720;-91
2023/05/20 03:57:35;;;;;;;25.42;13.10;;;;;;;12.08;100.00;98838.91;2603629;28;20051;-91
2023/05/20 03:58:51;;;;;;;20.63;11.82;;;;;;;12.04;100.00;98836.41;2598929;28;20050;-91
2023/05/20 04:00:29;;;;;;;24.33;12.63;;;;;;;11.91;100.00;98836.72;2605646;28;20608;-91
2023/05/20 04:01:45;;;;;;;22.92;11.82;;;;;;;12.04;100.00;98836.41;2587001;28;20058;-91
2023/05/20 04:03:00;;;;;;;21.52;11.93;;;;;;;12.10;100.00;98830.97;2587330;28;20050;-92
2023/05/20 04:04:16;;;;;;;22.58;11.65;;;;;;;12.03;100.00;98837.31;2586639;28;20053;-91
2023/05/20 04:06:12;;;;;;;26.50;12.77;;;;;;;11.90;100.00;98837.63;2577420;28;20086;-92
2023/05/20 04:07:28;;;;;;;21.33;11.90;;;;;;;12.17;100.00;98837.78;2535709;29;20056;-91
2023/05/20 04:08:44;;;;;;;20.35;11.90;;;;;;;11.99;100.00;98833.88;2545142;29;20056;-91
2023/05/20 04:10:41;;;;;;;25.52;12.73;;;;;;;12.24;100.00;98835.84;2546626;29;20059;-93
2023/05/20 04:11:58;;;;;;;19.92;11.57;;;;;;;12.18;100.00;98842.13;2517505;29;20809;-91
2023/05/20 04:13:13;;;;;;;21.83;11.65;;;;;;;12.28;100.00;98846.19;2518757;29;20061;-91
2023/05/20 04:14:30;;;;;;;23.77;12.18;;;;;;;12.38;100.00;98845.94;2551640;28;20134;-91
2023/05/20 04:15:47;;;;;;;22.42;12.18;;;;;;;12.32;100.00;98849.59;2556253;28;20059;-91
2023/05/20 04:17:17;;;;;;;22.38;12.20;;;;;;;12.42;100.00;98847.56;2536300;29;20051;-92
2023/05/20 04:18:53;;;;;;;24.33;12.98;;;;;;;12.39;100.00;98845.91;2557224;28;20421;-92
2023/05/20 04:20:10;;;;;;;21.58;12.45;;;;;;;12.39;100.00;98840.66;2572244;28;20054;-91
2023/05/20 04:21:26;;;;;;;24.00;12.77;;;;;;;12.41;100.00;98845.84;2567276;28;20137;-91
2023/05/20 04:23:02;;;;;;;21.90;12.57;;;;;;;12.52;100.00;98848.19;2567740;28;20051;-91
2023/05/20 04:24:17;;;;;;;25.23;11.98;;;;;;;12.66;100.00;98839.88;2563404;28;20133;-91
2023/05/20 04:25:34;;;;;;;23.33;12.40;;;;;;;12.72;100.00;98844.97;2566616;28;20717;-91
2023/05/20 04:26:51;;;;;;;20.70;12.15;;;;;;;12.71;100.00;98841.47;2571082;28;20680;-91
2023/05/20 04:28:08;;;;;;;20.10;11.88;;;;;;;12.55;100.00;98858.59;2562926;28;20051;-91
2023/05/20 04:29:24;;;;;;;24.88;12.85;;;;;;;12.77;100.00;98844.78;2571204;28;20062;-91
2023/05/20 04:30:41;;;;;;;24.88;13.15;;;;;;;12.74;100.00;98845.78;2572774;28;20066;-91
2023/05/20 04:31:57;;;;;;;25.23;12.90;;;;;;;12.94;100.00;98845.16;2596619;28;20132;-92
2023/05/20 04:33:13;;;;;;;23.45;12.68;;;;;;;13.02;100.00;98852.81;2604459;28;20076;-91
2023/05/20 04:36:08;;;;;;;21.58;12.30;;;;;;;12.95;100.00;98835.50;2578606;28;20050;-91
2023/05/20 04:37:24;;;;;;;21.05;12.50;;;;;;;12.86;100.00;98831.38;2570483;28;20106;-92
2023/05/20 04:38:41;;;;;;;23.08;12.88;;;;;;;12.84;100.00;98834.03;2571512;28;20073;-91
2023/05/20 04:39:57;;;;;;;21.60;12.30;;;;;;;12.84;100.00;98834.03;2571923;28;20438;-92
2023/05/20 04:43:09;;;;;;;20.83;11.93;;;;;;;13.05;100.00;98830.78;2564125;28;20055;-91
2023/05/20 04:44:40;;;;;;;22.88;12.82;;;;;;;13.04;100.00;98844.84;2537559;29;20089;-92
2023/05/20 04:45:56;;;;;;;20.13;11.65;;;;;;;13.24;100.00;98833.69;2536598;29;20060;-91
2023/05/20 04:47:12;;;;;;;22.90;13.10;;;;;;;12.74;100.00;98839.63;2537263;29;20063;-92
2023/05/20 04:48:48;;;;;;;21.33;12.93;;;;;;;12.93;100.00;98843.44;2536778;29;20052;-92
2023/05/20 04:50:09;;;;;;;21.88;12.65;;;;;;;13.11;100.00;98841.97;2546363;28;20082;-92
2023/05/20 04:51:40;;;;;;;21.27;11.85;;;;;;;13.33;100.00;98836.03;2548721;29;20061;-91
2023/05/20 04:52:56;;;;;;;20.42;12.02;;;;;;;13.25;100.00;98838.03;2540068;29;20488;-94
2023/05/20 04:54:13;;;;;;;20.20;12.68;;;;;;;13.26;100.00;98834.50;2544069;29;20146;-91
2023/05/20 04:55:29;;;;;;;20.50;11.95;;;;;;;13.11;100.00;98833.25;2551483;29;20083;-92
2023/05/20 04:56:45;;;;;;;19.38;11.77;;;;;;;13.17;100.00;98834.81;2565789;28;20054;-92
2023/05/20 04:58:01;;;;;;;25.90;13.75;;;;;;;13.22;100.00;98831.13;2583025;28;20058;-92
2023/05/20 04:59:17;;;;;;;23.45;12.63;;;;;;;13.18;100.00;98826.84;2593104;28;20625;-94
2023/05/20 05:00:32;;;;;;;23.83;13.80;;;;;;;13.30;100.00;98825.63;2582144;28;20569;-93
2023/05/20 05:01:48;;;;;;;21.20;12.45;;;;;;;13.40;100.00;98819.13;2583692;28;20122;-94
2023/05/20 05:05:16;;;;;;;20.90;12.88;;;;;;;13.21;100.00;98823.28;2551254;28;20062;-90
2023/05/20 05:06:32;;;;;;;20.95;12.15;;;;;;;13.18;100.00;98815.50;2523615;29;20505;-91
2023/05/20 05:07:47;;;;;;;24.52;13.30;;;;;;;13.37;100.00;98819.22;2521096;29;20071;-91
2023/05/20 05:09:03;;;;;;;22.40;13.48;;;;;;;13.29;100.00;98808.13;2524415;29;20056;-90
2023/05/20 05:10:39;;;;;;;24.15;13.43;;;;;;;13.27;100.00;98818.69;2537799;29;20164;-90
2023/05/20 05:12:31;;;;;;;24.85;13.20;;;;;;;13.34;100.00;98823.72;2517627;29;20174;-89
2023/05/20 05:14:07;;;;;;;22.70;13.02;;;;;;;13.42;100.00;98821.72;2525121;29;20134;-90
2023/05/20 05:17:29;;;;;;;21.42;12.60;;;;;;;13.56;100.00;98830.03;2465536;29;20051;-90
2023/05/20 05:19:05;;;;;;;22.63;11.48;;;;;;;13.49;100.00;98815.38;2467530;29;20059;-90
2023/05/20 05:20:20;;;;;;;21.60;12.65;;;;;;;13.45;100.00;98812.91;2464656;29;20540;-91
2023/05/20 05:21:56;;;;;;;22.83;12.85;;;;;;;13.41;100.00;98812.97;2476415;29;20202;-90
2023/05/20 05:24:48;;;;;;;24.15;13.25;;;;;;;13.27;100.00;98809.94;2542189;29;20047;-90
2023/05/20 05:26:03;;;;;;;19.70;12.70;;;;;;;13.23;100.00;98814.44;2542792;29;20056;-92
2023/05/20 05:27:19;;;;;;;23.13;12.02;;;;;;;13.35;100.00;98810.53;2557850;28;20058;-90
2023/05/20 05:28:39;;;;;;;23.13;13.57;;;;;;;13.30;100.00;98811.59;2562958;28;20063;-90
2023/05/20 05:30:00;;;;;;;22.63;12.63;;;;;;;13.27;100.00;98809.94;2556978;28;20071;-90
2023/05/20 05:31:16;;;;;;;18.38;11.75;;;;;;;13.13;100.00;98803.38;2572744;28;20062;-91
2023/05/20 05:34:08;;;;;;;23.42;13.07;;;;;;;13.14;100.00;98804.22;2556845;28;20559;-90
2023/05/20 05:35:23;;;;;;;22.45;12.55;;;;;;;13.40;100.00;98816.50;2561634;28;20058;-90
2023/05/20 05:36:44;;;;;;;24.58;13.70;;;;;;;13.31;100.00;98806.31;2569385;28;20517;-89
2023/05/20 05:38:19;;;;;;;22.77;13.48;;;;;;;13.39;100.00;98817.41;2570676;28;20408;-90
2023/05/20 05:39:36;;;;;;;23.52;13.20;;;;;;;13.43;100.00;98815.53;2565795;28;20135;-89
2023/05/20 05:40:52;;;;;;;22.40;12.27;;;;;;;13.35;100.00;98818.44;2571175;28;20955;-90
2023/05/20 05:42:22;;;;;;;21.65;12.68;;;;;;;13.27;100.00;98812.59;2536537;29;20393;-90
2023/05/20 05:44:02;;;;;;;22.55;12.57;;;;;;;13.52;100.00;98812.63;2541528;29;20103;-89
2023/05/20 05:45:38;;;;;;;21.70;13.27;;;;;;;13.40;100.00;98816.50;2527000;29;20057;-89
2023/05/20 05:46:58;;;;;;;21.70;12.60;;;;;;;13.66;100.00;98825.31;2552519;29;20059;-89
2023/05/20 05:48:14;;;;;;;23.70;13.60;;;;;;;13.77;100.00;98816.19;2551529;28;20094;-89
2023/05/20 05:49:50;;;;;;;23.42;12.82;;;;;;;13.70;100.00;98813.78;2565744;28;20588;-89
2023/05/20 05:51:06;;;;;;;23.58;12.27;;;;;;;13.92;100.00;98807.75;2540798;29;20151;-90
2023/05/20 05:52:42;;;;;;;19.95;12.35;;;;;;;14.05;100.00;98809.94;2559658;28;20510;-89
2023/05/20 05:53:58;;;;;;;22.80;12.88;;;;;;;13.97;100.00;98810.22;2545473;29;20548;-87
2023/05/20 05:57:10;;;;;;;21.60;12.35;;;;;;;14.24;100.00;98803.06;2526022;29;20071;-89
2023/05/20 06:00:03;;;;;;;21.52;11.70;;;;;;;14.46;100.00;98797.00;2526457;29;20049;-89
2023/05/20 06:03:09;;;;;;;20.27;12.52;;;;;;;14.39;100.00;98806.06;2524017;29;20065;-89
2023/05/20 06:04:25;;;;;;;21.10;12.43;;;;;;;14.11;100.00;98800.03;2535760;29;20436;-89
2023/05/20 06:05:56;;;;;;;20.10;12.00;;;;;;;14.12;100.00;98799.13;2517063;29;20059;-89
2023/05/20 06:07:17;;;;;;;21.60;12.38;;;;;;;14.06;100.00;98807.25;2534002;29;20071;-87
2023/05/20 06:08:33;;;;;;;21.50;12.68;;;;;;;14.04;100.00;98800.31;2538519;29;20096;-88
2023/05/20 06:10:04;;;;;;;24.70;12.70;;;;;;;13.77;100.00;98808.28;2541119;28;20542;-88
2023/05/20 06:11:20;;;;;;;23.77;12.63;;;;;;;14.10;100.00;98810.63;2557768;28;20066;-88
2023/05/20 06:12:36;;;;;;;22.65;12.93;;;;;;;14.45;100.00;98811.09;2557895;28;20207;-89
2023/05/20 06:13:51;;;;;;;23.35;12.43;;;;;;;14.29;100.00;98804.69;2574777;28;20099;-88
2023/05/20 06:15:27;;;;;;;24.02;12.50;;;;;;;14.31;100.00;98802.84;2582275;28;20452;-88
2023/05/20 06:16:43;;;;;;;20.88;12.38;;;;;;;14.36;100.00;98801.75;2576446;28;20073;-88
2023/05/20 06:17:58;;;;;;;20.42;12.63;;;;;;;14.49;100.00;98796.88;2586216;28;20560;-89
2023/05/20 06:19:34;;;;;;;21.23;12.82;;;;;;;14.71;100.00;98796.06;2587954;28;20080;-88
2023/05/20 06:23:10;;;;;;;20.17;11.45;;;;;;;14.60;100.00;98792.97;2520208;29;20125;-89
2023/05/20 06:24:46;;;;;;;19.85;10.98;;;;;;;14.53;100.00;98795.88;2480399;29;20062;-88
2023/05/20 06:26:03;;;;;;;21.90;12.27;;;;;;;15.10;100.00;98797.19;2480990;29;20092;-89
2023/05/20 06:27:53;;;;;;;19.65;11.73;;;;;;;15.39;100.00;98795.97;2468829;29;20999;-92
2023/05/20 06:29:09;;;;;;;21.88;11.18;;;;;;;15.19;100.00;98791.53;2496163;29;20502;-89
2023/05/20 06:30:24;;;;;;;23.10;12.05;;;;;;;15.29;100.00;98797.28;2536409;29;20055;-91
2023/05/20 06:31:40;;;;;;;21.75;12.02;;;;;;;15.60;100.00;98795.97;2563816;28;20536;-91
2023/05/20 06:32:56;;;;;;;19.80;12.20;;;;;;;15.34;100.00;98790.03;2566084;28;20066;-90
2023/05/20 06:34:26;;;;;;;20.75;11.75;;;;;;;15.32;100.00;98793.66;2551154;28;20057;-89
2023/05/20 06:35:42;;;;;;;18.67;11.30;;;;;;;15.63;100.00;98798.47;2564835;28;20055;-92
2023/05/20 06:36:57;;;;;;;20.98;11.45;;;;;;;15.78;100.00;98799.59;2569765;28;20059;-88
2023/05/20 06:38:13;;;;;;;22.58;11.75;;;;;;;15.49;100.00;98787.66;2571645;28;20053;-91
2023/05/20 06:39:30;;;;;;;19.77;10.52;;;;;;;15.38;100.00;98794.25;2570731;28;20598;-92
2023/05/20 06:40:47;;;;;;;21.10;11.30;;;;;;;15.65;100.00;98793.13;2576467;28;20058;-89
2023/05/20 06:42:03;;;;;;;19.55;11.13;;;;;;;15.81;100.00;98794.19;2602819;28;20503;-93
2023/05/20 06:44:55;;;;;;;17.85;10.93;;;;;;;15.80;100.00;98789.00;2570047;28;20062;-92
2023/05/20 06:46:10;;;;;;;20.27;11.05;;;;;;;15.80;100.00;98792.47;2571391;28;20589;-95
2023/05/20 06:47:26;;;;;;;21.77;11.18;;;;;;;16.06;99.40;98786.97;2569314;28;20470;-94
2023/05/20 06:48:46;;;;;;;20.15;11.30;;;;;;;15.71;100.00;98782.31;2572357;28;20061;-92
2023/05/20 06:50:01;;;;;;;20.23;12.00;;;;;;;15.98;100.00;98794.41;2570358;28;20051;-91
2023/05/20 06:51:17;;;;;;;16.45;9.98;;;;;;;15.84;100.00;98792.31;2578080;28;20522;-93
2023/05/20 06:52:33;;;;;;;20.60;11.23;;;;;;;16.01;99.94;98796.91;2601328;28;20054;-93
2023/05/20 06:55:26;;;;;;;19.95;11.38;;;;;;;16.21;97.52;98786.31;2587474;28;20505;-93
2023/05/20 06:56:43;;;;;;;19.02;10.27;;;;;;;15.94;100.00;98791.91;2583701;28;20628;-93
2023/05/20 06:57:58;;;;;;;19.25;11.05;;;;;;;16.42;93.89;98788.88;2584536;28;20054;-93
2023/05/20 06:59:14;;;;;;;19.85;11.20;;;;;;;16.40;94.25;98784.56;2588231;28;20074;-94
2023/05/20 07:00:30;;;;;;;18.15;10.68;;;;;;;16.36;94.79;98787.38;2572510;28;21301;-94